createdAt,value
2022-08-07T00:00:36.338Z,11.40
2022-08-07T00:03:08.702Z,11.40
2022-08-07T00:05:36.309Z,11.40
2022-08-07T00:08:04.699Z,11.30
2022-08-07T00:10:32.004Z,11.20
2022-08-07T00:13:02.212Z,11.20
2022-08-07T00:15:37.844Z,11.10
2022-08-07T00:18:25.042Z,11.00
2022-08-07T00:20:53.448Z,11.00
2022-08-07T00:23:21.557Z,11.00
2022-08-07T00:25:52.140Z,11.00
2022-08-07T00:28:33.609Z,11.00
2022-08-07T00:31:06.142Z,10.90
2022-08-07T00:33:34.084Z,10.90
2022-08-07T00:36:01.188Z,10.80
2022-08-07T00:38:31.651Z,10.80
2022-08-07T00:40:59.534Z,10.80
2022-08-07T00:43:59.388Z,10.70
2022-08-07T00:46:14.349Z,10.70
2022-08-07T00:48:42.256Z,10.70
2022-08-07T00:51:09.788Z,10.70
2022-08-07T00:53:38.455Z,10.70
2022-08-07T00:56:16.045Z,10.70
2022-08-07T00:58:43.781Z,10.60
2022-08-07T01:01:14.155Z,10.60
2022-08-07T01:03:57.201Z,10.60
2022-08-07T01:06:28.416Z,10.50
2022-08-07T01:08:56.448Z,10.40
2022-08-07T01:12:23.320Z,10.40
2022-08-07T01:14:16.553Z,10.40
2022-08-07T01:16:47.358Z,10.30
2022-08-07T01:19:18.831Z,10.30
2022-08-07T01:21:47.538Z,10.20
2022-08-07T01:24:21.236Z,10.20
2022-08-07T01:26:52.096Z,10.20
2022-08-07T01:29:20.131Z,10.20
2022-08-07T01:31:49.403Z,10.10
2022-08-07T01:34:18.687Z,10.10
2022-08-07T01:36:52.485Z,10.10
2022-08-07T01:39:39.523Z,10.00
2022-08-07T01:42:39.623Z,10.00
2022-08-07T01:45:00.515Z,10.00
2022-08-07T01:48:18.426Z,9.90
2022-08-07T01:50:14.360Z,9.90
2022-08-07T01:52:49.462Z,9.90
2022-08-07T01:55:24.323Z,9.80
2022-08-07T01:58:06.377Z,9.80
2022-08-07T02:00:49.129Z,9.80
2022-08-07T02:03:26.470Z,9.70
2022-08-07T02:06:02.299Z,9.70
2022-08-07T02:08:41.747Z,9.70
2022-08-07T02:11:10.370Z,9.70
2022-08-07T02:13:57.438Z,9.70
2022-08-07T02:16:29.965Z,9.70
2022-08-07T02:19:02.182Z,9.70
2022-08-07T02:21:56.490Z,9.70
2022-08-07T02:24:21.682Z,9.70
2022-08-07T02:26:49.103Z,9.70
2022-08-07T02:29:16.207Z,9.70
2022-08-07T02:31:49.811Z,9.60
2022-08-07T02:34:18.344Z,9.70
2022-08-07T02:36:46.157Z,9.60
2022-08-07T02:39:17.392Z,9.70
2022-08-07T02:42:02.112Z,9.60
2022-08-07T02:44:34.823Z,9.60
2022-08-07T02:47:04.245Z,9.60
2022-08-07T02:49:58.093Z,9.60
2022-08-07T02:52:21.597Z,9.60
2022-08-07T02:55:00.954Z,9.60
2022-08-07T02:57:34.899Z,9.60
2022-08-07T03:00:04.862Z,9.50
2022-08-07T03:02:37.583Z,9.50
2022-08-07T03:05:24.650Z,9.60
2022-08-07T03:08:07.067Z,9.60
2022-08-07T03:10:46.315Z,9.60
2022-08-07T03:13:15.470Z,9.60
2022-08-07T03:15:48.001Z,9.90
2022-08-07T03:18:34.211Z,10.80
2022-08-07T03:21:03.559Z,12.10
2022-08-07T03:23:33.796Z,13.40
2022-08-07T03:26:21.262Z,14.50
2022-08-07T03:28:51.561Z,15.30
2022-08-07T03:31:19.744Z,16.10
2022-08-07T03:33:55.293Z,16.70
2022-08-07T03:36:25.927Z,17.40
2022-08-07T03:38:55.509Z,18.00
2022-08-07T03:41:41.997Z,18.50
2022-08-07T03:44:10.693Z,19.00
2022-08-07T03:47:14.128Z,19.40
2022-08-07T03:49:30.491Z,19.70
2022-08-07T03:52:01.203Z,20.00
2022-08-07T03:54:36.461Z,20.30
2022-08-07T03:58:33.428Z,20.40
2022-08-07T04:00:04.144Z,20.40
2022-08-07T04:02:31.403Z,20.50
2022-08-07T04:04:58.764Z,20.60
2022-08-07T04:07:25.918Z,20.70
2022-08-07T04:10:08.794Z,20.70
2022-08-07T04:12:42.850Z,20.60
2022-08-07T04:15:10.380Z,20.40
2022-08-07T04:18:57.334Z,20.40
2022-08-07T04:20:25.958Z,20.30
2022-08-07T04:23:01.977Z,20.60
2022-08-07T04:25:29.549Z,20.80
2022-08-07T04:27:59.270Z,20.90
2022-08-07T04:30:35.803Z,21.20
2022-08-07T04:33:14.016Z,21.20
2022-08-07T04:35:44.032Z,21.50
2022-08-07T04:38:17.975Z,21.70
2022-08-07T04:40:52.449Z,22.00
2022-08-07T04:44:09.888Z,22.40
2022-08-07T04:46:34.713Z,22.60
2022-08-07T04:49:24.326Z,22.70
2022-08-07T04:52:01.681Z,22.90
2022-08-07T04:54:44.954Z,23.20
2022-08-07T04:58:29.247Z,23.30
2022-08-07T05:00:18.783Z,23.30
2022-08-07T05:02:56.939Z,23.40
2022-08-07T05:05:54.174Z,23.50
2022-08-07T05:08:13.461Z,23.60
2022-08-07T05:10:43.494Z,23.60
2022-08-07T05:14:55.125Z,23.80
2022-08-07T05:16:05.148Z,24.00
2022-08-07T05:18:36.924Z,24.20
2022-08-07T05:21:04.813Z,24.40
2022-08-07T05:23:50.504Z,24.50
2022-08-07T05:26:24.010Z,24.80
2022-08-07T05:28:52.733Z,24.90
2022-08-07T05:31:22.228Z,24.60
2022-08-07T05:34:01.235Z,24.60
2022-08-07T05:36:35.513Z,24.90
2022-08-07T05:40:04.908Z,25.30
2022-08-07T05:42:00.667Z,25.50
2022-08-07T05:44:31.339Z,25.70
2022-08-07T05:47:00.310Z,25.60
2022-08-07T05:49:40.625Z,25.80
2022-08-07T05:52:11.613Z,26.00
2022-08-07T05:54:53.481Z,26.00
2022-08-07T05:57:29.899Z,25.70
2022-08-07T05:59:58.447Z,25.50
2022-08-07T06:02:28.751Z,25.40
2022-08-07T06:04:57.877Z,25.50
2022-08-07T06:08:05.318Z,25.80
2022-08-07T06:10:15.707Z,26.20
2022-08-07T06:12:42.647Z,26.40
2022-08-07T06:15:10.757Z,26.30
2022-08-07T06:17:53.471Z,26.20
2022-08-07T06:20:49.379Z,26.20
2022-08-07T06:23:46.019Z,26.00
2022-08-07T06:26:00.092Z,25.90
2022-08-07T06:28:28.580Z,25.70
2022-08-07T06:30:56.062Z,25.70
2022-08-07T06:33:23.911Z,25.60
2022-08-07T06:36:13.488Z,25.60
2022-08-07T06:38:37.715Z,25.60
2022-08-07T06:41:13.185Z,25.40
2022-08-07T06:43:46.613Z,25.30
2022-08-07T06:46:35.017Z,25.50
2022-08-07T06:49:03.924Z,25.50
2022-08-07T06:51:33.429Z,25.50
2022-08-07T06:55:27.766Z,25.50
2022-08-07T06:56:51.082Z,25.70
2022-08-07T07:00:13.646Z,25.80
2022-08-07T07:02:49.018Z,26.00
2022-08-07T07:05:03.663Z,26.20
2022-08-07T07:07:59.902Z,26.40
2022-08-07T07:10:26.873Z,26.70
2022-08-07T07:12:55.956Z,26.40
2022-08-07T07:15:35.814Z,26.20
2022-08-07T07:18:05.862Z,26.20
2022-08-07T07:20:37.782Z,26.40
2022-08-07T07:24:08.377Z,26.60
2022-08-07T07:26:32.530Z,26.80
2022-08-07T07:29:40.354Z,26.90
2022-08-07T07:31:44.271Z,27.10
2022-08-07T07:34:15.526Z,27.20
2022-08-07T07:36:47.967Z,26.70
2022-08-07T07:39:21.262Z,26.60
2022-08-07T07:41:50.778Z,26.60
2022-08-07T07:44:38.469Z,26.70
2022-08-07T07:47:14.077Z,26.60
2022-08-07T07:50:34.693Z,26.70
2022-08-07T07:52:33.928Z,26.70
2022-08-07T07:55:01.259Z,26.80
2022-08-07T07:57:43.862Z,26.60
2022-08-07T08:00:29.167Z,26.40
2022-08-07T08:03:09.596Z,26.30
2022-08-07T08:05:54.749Z,26.20
2022-08-07T08:08:34.887Z,26.40
2022-08-07T08:11:09.010Z,26.60
2022-08-07T08:13:54.929Z,26.50
2022-08-07T08:16:32.602Z,26.10
2022-08-07T08:19:09.746Z,25.60
2022-08-07T08:22:04.447Z,24.80
2022-08-07T08:25:18.584Z,24.20
2022-08-07T08:27:56.344Z,23.80
2022-08-07T08:30:25.711Z,23.60
2022-08-07T08:32:58.692Z,23.70
2022-08-07T08:35:28.464Z,23.80
2022-08-07T08:38:00.575Z,23.70
2022-08-07T08:40:32.013Z,23.60
2022-08-07T08:43:01.792Z,23.90
2022-08-07T08:45:42.038Z,24.30
2022-08-07T08:48:42.110Z,24.60
2022-08-07T08:51:26.138Z,24.60
2022-08-07T08:54:14.643Z,24.30
2022-08-07T08:56:47.168Z,24.20
2022-08-07T08:59:16.567Z,24.50
2022-08-07T09:01:52.381Z,24.80
2022-08-07T09:04:25.884Z,24.90
2022-08-07T09:07:04.750Z,24.50
2022-08-07T09:09:57.001Z,23.80
2022-08-07T09:12:32.177Z,23.20
2022-08-07T09:16:21.902Z,22.70
2022-08-07T09:18:10.086Z,22.50
2022-08-07T09:20:58.532Z,22.60
2022-08-07T09:24:30.559Z,22.90
2022-08-07T09:26:47.930Z,22.80
2022-08-07T09:30:03.322Z,22.40
2022-08-07T09:32:17.030Z,22.10
2022-08-07T09:34:54.208Z,21.90
2022-08-07T09:37:47.923Z,21.80
2022-08-07T09:40:14.722Z,21.70
2022-08-07T09:42:51.245Z,21.70
2022-08-07T09:47:27.625Z,21.60
2022-08-07T09:48:20.531Z,21.70
2022-08-07T09:51:25.916Z,22.00
2022-08-07T09:54:00.625Z,22.20
2022-08-07T09:56:39.300Z,22.60
2022-08-07T10:00:00.999Z,22.80
2022-08-07T10:02:55.113Z,22.90
2022-08-07T10:06:01.236Z,22.70
2022-08-07T10:08:20.143Z,22.40
2022-08-07T10:12:00.650Z,22.20
2022-08-07T10:14:00.978Z,22.20
2022-08-07T10:16:49.552Z,22.40
2022-08-07T10:19:16.406Z,22.70
2022-08-07T10:22:14.276Z,22.80
2022-08-07T10:24:30.557Z,22.90
2022-08-07T10:27:15.665Z,22.80
2022-08-07T10:29:45.851Z,22.70
2022-08-07T10:32:53.405Z,22.50
2022-08-07T10:35:55.896Z,22.20
2022-08-07T10:38:49.273Z,22.00
2022-08-07T10:41:54.687Z,22.10
2022-08-07T10:44:38.710Z,22.30
2022-08-07T10:47:14.144Z,22.70
2022-08-07T10:49:50.839Z,23.00
2022-08-07T10:52:36.826Z,23.10
2022-08-07T10:55:37.740Z,23.10
2022-08-07T10:58:13.145Z,23.20
2022-08-07T11:00:56.022Z,23.40
2022-08-07T11:03:23.522Z,23.60
2022-08-07T11:06:18.314Z,23.70
2022-08-07T11:09:00.802Z,23.80
2022-08-07T11:11:35.969Z,23.80
2022-08-07T11:14:44.469Z,23.80
2022-08-07T11:17:07.081Z,23.70
2022-08-07T11:20:03.187Z,23.60
2022-08-07T11:22:45.580Z,23.60
2022-08-07T11:25:13.207Z,23.50
2022-08-07T11:28:01.292Z,23.30
2022-08-07T11:30:41.805Z,23.50
2022-08-07T11:33:17.638Z,23.40
2022-08-07T11:36:06.907Z,23.30
2022-08-07T11:38:50.585Z,23.40
2022-08-07T11:41:31.007Z,23.50
2022-08-07T11:44:12.619Z,23.40
2022-08-07T11:47:03.885Z,23.40
2022-08-07T11:50:31.930Z,23.50
2022-08-07T11:53:13.720Z,23.50
2022-08-07T20:15:33.064Z,17.30
2022-08-07T20:18:14.680Z,17.20
2022-08-07T20:20:45.764Z,17.10
2022-08-07T20:23:32.994Z,17.00
2022-08-07T20:26:05.290Z,16.90
2022-08-07T20:28:38.304Z,16.90
2022-08-07T20:31:21.887Z,16.80
2022-08-07T20:33:56.616Z,16.70
2022-08-07T20:36:27.256Z,16.70
2022-08-07T20:39:00.843Z,16.70
2022-08-07T20:41:33.962Z,16.60
2022-08-07T20:44:02.214Z,16.50
2022-08-07T20:46:34.539Z,16.50
2022-08-07T20:49:59.052Z,16.40
2022-08-07T20:52:00.561Z,16.40
2022-08-07T20:54:29.999Z,16.30
2022-08-07T20:56:59.815Z,16.30
2022-08-07T21:00:06.935Z,16.30
2022-08-07T21:02:38.396Z,16.20
2022-08-07T21:05:10.213Z,16.20
2022-08-07T21:07:48.811Z,16.20
2022-08-07T21:10:29.765Z,16.10
2022-08-07T21:13:00.388Z,16.10
2022-08-07T21:15:47.596Z,16.00
2022-08-07T21:18:33.571Z,16.00
2022-08-07T21:21:01.589Z,15.90
2022-08-07T21:23:50.338Z,15.90
2022-08-07T21:26:26.612Z,15.80
2022-08-07T21:29:05.688Z,15.70
2022-08-07T21:32:41.582Z,15.70
2022-08-07T21:34:46.209Z,15.60
2022-08-07T21:37:23.282Z,15.50
2022-08-07T21:39:51.749Z,15.50
2022-08-07T21:42:42.902Z,15.50
2022-08-07T21:46:08.438Z,15.40
2022-08-07T21:48:28.668Z,15.30
2022-08-07T21:51:05.074Z,15.20
2022-08-07T21:53:46.482Z,15.10
2022-08-07T21:56:47.817Z,15.00
2022-08-07T22:00:05.315Z,14.80
2022-08-07T22:02:34.669Z,14.80
2022-08-07T22:05:03.021Z,14.70
2022-08-07T22:07:35.645Z,14.70
2022-08-07T22:10:20.243Z,14.60
2022-08-07T22:12:53.268Z,14.60
2022-08-07T22:16:45.678Z,14.50
2022-08-07T22:18:28.788Z,14.40
2022-08-07T22:21:11.616Z,14.30
2022-08-07T22:23:40.213Z,14.30
2022-08-07T22:26:07.950Z,14.20
2022-08-07T22:28:52.944Z,14.20
2022-08-07T22:31:56.016Z,14.10
2022-08-07T22:34:53.390Z,14.10
2022-08-07T22:38:03.488Z,14.10
2022-08-07T22:40:23.773Z,14.10
2022-08-07T22:42:53.156Z,14.00
2022-08-07T22:46:40.881Z,13.90
2022-08-07T22:48:54.994Z,13.90
2022-08-07T22:51:36.354Z,13.80
2022-08-07T22:54:30.402Z,13.80
2022-08-07T22:57:00.660Z,13.70
2022-08-07T22:59:39.297Z,13.70
2022-08-07T23:02:35.530Z,13.60
2022-08-07T23:06:09.777Z,13.60
2022-08-07T23:08:30.658Z,13.60
2022-08-07T23:11:10.339Z,13.50
2022-08-07T23:14:10.786Z,13.50
2022-08-07T23:16:54.768Z,13.40
2022-08-07T23:19:57.883Z,13.40
2022-08-07T23:22:26.949Z,13.40
2022-08-07T23:24:56.779Z,13.30
2022-08-07T23:27:33.569Z,13.40
2022-08-07T23:30:39.213Z,13.30
2022-08-07T23:34:34.604Z,13.30
2022-08-07T23:36:22.938Z,13.30
2022-08-07T23:39:01.872Z,13.30
2022-08-07T23:42:01.693Z,13.30
2022-08-07T23:44:37.807Z,13.30
2022-08-07T23:47:20.014Z,13.30
2022-08-07T23:49:56.846Z,13.20
2022-08-07T23:53:12.059Z,13.20
2022-08-07T23:55:51.714Z,13.20
2022-08-07T23:58:24.284Z,13.20
